Time;durP1;ratioP1;P1;durP2;ratioP2;P2;SDS_P1;SDS_P2;PMS_P1;PMS_P2;Temp;Humidity;BMP_temperature;BMP_pressure;BME280_temperature;BME280_humidity;BME280_pressure;Samples;Min_cycle;Max_cycle;Signal;HPM_P1;HPM_P2
2021/08/16 00:01:48;;;;;;;14.23;9.32;;;19.60;98.00;;;;;;5037212;28;20033;-72
2021/08/16 00:04:14;;;;;;;18.88;10.40;;;19.60;98.00;;;;;;5037333;28;20033;-72
2021/08/16 00:06:40;;;;;;;18.98;10.60;;;19.60;98.00;;;;;;5037405;28;20418;-72
2021/08/16 00:09:08;;;;;;;16.80;9.70;;;19.50;98.00;;;;;;5037118;28;20029;-72
2021/08/16 00:11:34;;;;;;;16.77;10.02;;;19.50;98.00;;;;;;5031122;28;20426;-71
2021/08/16 00:14:00;;;;;;;16.00;10.02;;;19.40;98.00;;;;;;5036713;28;20038;-72
2021/08/16 00:16:27;;;;;;;18.05;10.15;;;19.30;98.00;;;;;;5037195;28;20079;-72
2021/08/16 00:18:55;;;;;;;15.88;9.98;;;19.30;98.00;;;;;;5037511;28;20030;-72
2021/08/16 00:21:24;;;;;;;15.50;9.65;;;19.30;98.00;;;;;;5036752;28;20030;-71
2021/08/16 00:23:49;;;;;;;15.20;9.13;;;19.40;98.00;;;;;;5036733;28;20049;-71
2021/08/16 00:26:15;;;;;;;18.25;9.77;;;19.40;98.00;;;;;;5037103;28;20108;-72
2021/08/16 00:28:44;;;;;;;13.55;9.32;;;19.40;98.00;;;;;;5035476;28;20017;-72
2021/08/16 00:31:10;;;;;;;16.73;9.90;;;19.30;98.00;;;;;;5036631;28;20025;-71
2021/08/16 00:33:38;;;;;;;17.77;9.82;;;19.40;98.00;;;;;;5033428;28;20086;-72
2021/08/16 00:36:04;;;;;;;17.80;9.65;;;19.50;98.00;;;;;;5035634;28;20056;-72
2021/08/16 00:38:30;;;;;;;15.52;9.00;;;19.50;98.00;;;;;;5036751;28;20410;-72
2021/08/16 00:40:56;;;;;;;16.90;10.95;;;19.40;98.00;;;;;;5036525;28;20147;-72
2021/08/16 00:43:22;;;;;;;15.93;10.63;;;19.30;98.00;;;;;;5034749;28;20448;-72
2021/08/16 00:45:48;;;;;;;16.17;9.60;;;19.30;98.00;;;;;;5036510;28;20108;-72
2021/08/16 00:48:13;;;;;;;20.48;9.98;;;19.20;98.00;;;;;;5036200;28;20028;-72
2021/08/16 00:50:40;;;;;;;18.08;10.77;;;19.20;98.00;;;;;;5036755;28;20021;-72
2021/08/16 00:53:06;;;;;;;16.60;10.48;;;19.20;98.00;;;;;;5036276;28;20025;-71
2021/08/16 00:55:33;;;;;;;20.55;10.30;;;19.20;98.00;;;;;;5036012;28;20108;-72
2021/08/16 00:58:00;;;;;;;17.60;9.85;;;19.20;98.00;;;;;;5034186;28;20116;-72
2021/08/16 01:00:26;;;;;;;21.67;12.15;;;19.30;97.60;;;;;;5036013;28;20022;-72
2021/08/16 01:02:52;;;;;;;23.25;12.57;;;19.40;97.10;;;;;;5036211;28;20033;-73
2021/08/16 01:05:17;;;;;;;23.65;13.90;;;19.50;97.00;;;;;;5036569;28;20029;-76
2021/08/16 01:07:45;;;;;;;21.88;12.48;;;19.40;97.10;;;;;;5036332;28;20109;-75
2021/08/16 01:10:12;;;;;;;21.15;13.30;;;19.10;97.60;;;;;;5036599;28;20038;-75
2021/08/16 01:12:38;;;;;;;20.58;11.27;;;18.90;97.40;;;;;;5034395;28;20492;-78
2021/08/16 01:15:09;;;;;;;14.70;9.73;;;18.60;97.70;;;;;;5036127;28;20094;-78
2021/08/16 01:17:36;;;;;;;17.42;10.68;;;18.40;97.80;;;;;;5036082;28;20033;-77
2021/08/16 01:20:05;;;;;;;12.30;7.63;;;18.40;97.30;;;;;;5036032;28;20025;-76
2021/08/16 01:22:33;;;;;;;14.05;8.05;;;18.20;98.00;;;;;;5035606;28;20041;-75
2021/08/16 01:24:58;;;;;;;14.25;7.93;;;18.10;98.00;;;;;;5034925;28;20075;-75
2021/08/16 01:27:24;;;;;;;13.80;7.13;;;18.10;98.00;;;;;;5031683;28;20442;-74
2021/08/16 01:29:50;;;;;;;16.35;9.18;;;18.10;98.00;;;;;;5031898;28;20048;-75
2021/08/16 01:32:15;;;;;;;12.82;8.52;;;18.00;98.00;;;;;;5031212;28;20041;-74
2021/08/16 01:34:44;;;;;;;14.70;9.70;;;18.00;97.60;;;;;;5029744;28;20037;-74
2021/08/16 01:37:10;;;;;;;19.10;9.85;;;17.90;97.30;;;;;;5031797;28;20274;-74
2021/08/16 01:39:36;;;;;;;16.38;9.63;;;17.90;96.60;;;;;;5030790;28;20029;-74
2021/08/16 01:42:02;;;;;;;11.75;8.38;;;18.00;96.30;;;;;;5029470;28;20021;-74
2021/08/16 01:44:27;;;;;;;14.73;9.30;;;18.00;96.50;;;;;;5030619;28;20025;-75
2021/08/16 01:46:56;;;;;;;14.77;8.30;;;17.90;96.80;;;;;;5031302;28;20033;-74
2021/08/16 01:49:22;;;;;;;18.48;10.10;;;17.80;97.00;;;;;;5030332;28;20036;-74
2021/08/16 01:51:48;;;;;;;15.25;10.20;;;17.80;96.70;;;;;;5032257;28;20029;-74
2021/08/16 01:54:15;;;;;;;18.40;9.98;;;17.80;96.20;;;;;;5032355;28;20061;-74
2021/08/16 01:56:41;;;;;;;16.27;9.82;;;17.70;95.90;;;;;;5033897;28;20030;-74
2021/08/16 01:59:07;;;;;;;14.15;9.68;;;17.70;95.50;;;;;;5036002;28;20025;-75
2021/08/16 02:01:33;;;;;;;15.07;8.23;;;17.70;95.30;;;;;;5035061;28;20318;-75
2021/08/16 02:03:59;;;;;;;11.85;8.07;;;17.70;95.20;;;;;;5035123;28;20084;-75
2021/08/16 02:06:24;;;;;;;13.30;8.98;;;17.70;95.50;;;;;;5035462;28;20025;-75
2021/08/16 02:08:50;;;;;;;13.85;8.52;;;17.60;95.60;;;;;;5035568;28;20045;-74
2021/08/16 02:11:16;;;;;;;12.43;8.65;;;17.60;95.30;;;;;;5035050;28;20029;-74
2021/08/16 02:13:41;;;;;;;13.48;9.27;;;17.60;95.30;;;;;;5034480;28;20068;-74
2021/08/16 02:16:07;;;;;;;13.93;9.70;;;17.60;95.20;;;;;;5034924;28;20034;-74
2021/08/16 02:18:33;;;;;;;15.85;10.40;;;17.60;95.10;;;;;;5034977;28;20068;-74
2021/08/16 02:20:58;;;;;;;15.25;9.52;;;17.50;95.20;;;;;;5033003;28;20056;-74
2021/08/16 02:23:24;;;;;;;16.70;9.80;;;17.50;94.90;;;;;;5035290;28;20056;-73
2021/08/16 02:25:50;;;;;;;17.67;10.80;;;17.50;95.00;;;;;;5035611;28;20377;-74
2021/08/16 02:28:17;;;;;;;16.70;9.82;;;17.40;94.70;;;;;;5033611;28;20034;-73
2021/08/16 02:30:46;;;;;;;15.65;10.27;;;17.50;94.30;;;;;;5035257;28;20033;-73
2021/08/16 02:33:13;;;;;;;13.73;9.18;;;17.50;94.90;;;;;;5034359;28;20030;-73
2021/08/16 02:35:40;;;;;;;14.02;9.65;;;17.50;94.50;;;;;;5035159;28;20030;-73
2021/08/16 02:38:06;;;;;;;14.93;9.98;;;17.50;94.90;;;;;;5034879;28;20033;-72
2021/08/16 02:40:33;;;;;;;13.25;8.93;;;17.50;94.40;;;;;;5035066;28;20033;-72
2021/08/16 02:42:58;;;;;;;15.68;9.00;;;17.40;94.70;;;;;;5034004;28;20305;-72
2021/08/16 02:45:25;;;;;;;14.07;9.32;;;17.40;94.60;;;;;;5034380;28;20026;-73
2021/08/16 02:47:51;;;;;;;18.30;9.55;;;17.40;94.60;;;;;;5033700;28;20049;-72
2021/08/16 02:50:17;;;;;;;18.95;9.77;;;17.40;94.10;;;;;;5032468;28;20025;-72
2021/08/16 02:52:42;;;;;;;14.05;9.52;;;17.40;94.60;;;;;;5035108;28;20111;-74
2021/08/16 02:55:08;;;;;;;18.20;10.52;;;17.40;94.10;;;;;;5035061;28;20033;-73
2021/08/16 02:57:34;;;;;;;20.15;10.95;;;17.50;94.20;;;;;;5033987;28;20041;-72
2021/08/16 03:00:00;;;;;;;17.60;12.45;;;17.50;93.90;;;;;;5035132;28;20037;-73
2021/08/16 03:02:25;;;;;;;20.73;12.80;;;17.60;93.50;;;;;;5034338;28;20029;-72
2021/08/16 03:04:53;;;;;;;20.30;11.88;;;17.70;93.50;;;;;;5034832;28;20028;-72
2021/08/16 03:07:21;;;;;;;20.15;11.52;;;17.80;93.60;;;;;;5035903;28;20022;-72
2021/08/16 03:09:47;;;;;;;17.60;11.63;;;17.90;93.60;;;;;;5038614;28;20026;-73
2021/08/16 03:12:13;;;;;;;18.77;10.88;;;18.00;93.90;;;;;;5036608;28;20029;-72
2021/08/16 03:14:38;;;;;;;17.50;10.60;;;18.00;94.20;;;;;;5038646;28;20036;-73
2021/08/16 03:17:04;;;;;;;16.83;11.50;;;18.10;94.50;;;;;;5037935;28;20026;-72
2021/08/16 03:19:31;;;;;;;14.55;10.82;;;18.10;94.80;;;;;;5038528;28;20119;-72
2021/08/16 03:21:57;;;;;;;18.40;11.30;;;18.10;94.80;;;;;;5036929;28;20159;-72
2021/08/16 03:24:23;;;;;;;20.15;11.05;;;18.10;95.50;;;;;;5038320;28;20033;-72
2021/08/16 03:26:49;;;;;;;19.50;10.73;;;18.20;95.90;;;;;;5037055;28;20037;-72
2021/08/16 03:29:15;;;;;;;16.50;10.55;;;18.30;96.20;;;;;;5037960;28;20056;-72
2021/08/16 03:31:44;;;;;;;19.00;11.63;;;18.40;96.70;;;;;;5037701;28;20034;-72
2021/08/16 03:34:11;;;;;;;17.42;11.98;;;18.40;97.30;;;;;;5036128;28;20276;-72
2021/08/16 03:36:36;;;;;;;16.80;11.23;;;18.40;97.20;;;;;;5029592;28;20033;-72
2021/08/16 03:39:03;;;;;;;18.27;11.00;;;18.40;97.60;;;;;;5038049;28;20414;-72
2021/08/16 03:41:28;;;;;;;14.88;10.50;;;18.30;97.60;;;;;;5037509;28;20029;-72
2021/08/16 03:43:54;;;;;;;18.70;10.98;;;18.30;97.60;;;;;;5037086;28;20029;-73
2021/08/16 03:46:20;;;;;;;16.65;10.65;;;18.30;97.50;;;;;;5036135;28;20031;-73
2021/08/16 03:48:46;;;;;;;19.20;10.50;;;18.30;97.50;;;;;;5037756;28;20083;-73
2021/08/16 03:51:11;;;;;;;14.80;10.80;;;18.30;97.30;;;;;;5037842;28;20087;-72
2021/08/16 03:53:37;;;;;;;16.83;11.23;;;18.30;97.30;;;;;;5037558;28;20037;-73
2021/08/16 03:56:03;;;;;;;19.63;12.13;;;18.20;97.50;;;;;;5038011;28;20026;-73
2021/08/16 03:58:29;;;;;;;19.27;11.65;;;18.20;97.30;;;;;;5036227;28;20449;-72
2021/08/16 04:00:54;;;;;;;18.05;11.45;;;18.10;97.20;;;;;;5036887;28;20041;-72
2021/08/16 04:03:20;;;;;;;14.73;11.30;;;18.10;96.90;;;;;;5037175;28;20053;-73
2021/08/16 04:05:46;;;;;;;18.75;11.93;;;18.00;96.60;;;;;;5037668;28;20028;-73
2021/08/16 04:08:12;;;;;;;17.70;11.23;;;18.00;96.90;;;;;;5037323;28;20030;-72
2021/08/16 04:10:37;;;;;;;17.33;11.45;;;18.00;96.90;;;;;;5037450;28;20411;-73
2021/08/16 04:13:03;;;;;;;18.77;11.88;;;17.90;96.70;;;;;;5036410;28;20048;-73
2021/08/16 04:15:29;;;;;;;16.10;11.35;;;18.00;96.40;;;;;;5034075;28;20041;-72
2021/08/16 04:17:55;;;;;;;20.63;12.57;;;18.00;96.10;;;;;;5032398;28;20026;-73
2021/08/16 04:20:21;;;;;;;17.50;10.98;;;18.10;96.20;;;;;;5027999;28;20026;-73
2021/08/16 04:22:47;;;;;;;17.50;10.75;;;18.10;96.20;;;;;;5036778;28;20046;-73
2021/08/16 04:25:16;;;;;;;19.05;10.65;;;18.10;97.10;;;;;;5037148;28;20156;-73
2021/08/16 04:27:42;;;;;;;18.67;11.98;;;18.10;97.00;;;;;;5035388;28;20033;-72
2021/08/16 04:30:10;;;;;;;19.52;12.80;;;18.10;97.00;;;;;;5036171;28;20095;-73
2021/08/16 04:32:36;;;;;;;16.95;10.93;;;18.10;97.30;;;;;;5035148;28;20053;-73
2021/08/16 04:35:03;;;;;;;17.77;12.38;;;18.10;97.30;;;;;;5036735;28;20049;-73
2021/08/16 04:37:29;;;;;;;17.60;10.57;;;18.10;97.20;;;;;;5036878;28;20417;-73
2021/08/16 04:39:54;;;;;;;16.63;12.25;;;18.10;97.60;;;;;;5036473;28;20081;-73
2021/08/16 04:42:20;;;;;;;19.88;12.57;;;18.10;97.60;;;;;;5035391;28;20040;-73
2021/08/16 04:44:47;;;;;;;22.70;13.65;;;18.10;97.80;;;;;;5036524;28;20021;-73
2021/08/16 04:47:13;;;;;;;19.38;12.05;;;18.20;97.60;;;;;;5035683;28;20036;-73
2021/08/16 04:49:38;;;;;;;22.05;12.18;;;18.20;97.60;;;;;;5035769;28;20029;-73
2021/08/16 04:52:04;;;;;;;19.00;11.20;;;18.30;97.80;;;;;;5035022;28;20060;-73
2021/08/16 04:54:30;;;;;;;21.25;11.98;;;18.40;98.00;;;;;;5035397;28;20108;-72
2021/08/16 04:56:55;;;;;;;16.58;11.35;;;18.40;98.00;;;;;;5035358;28;20036;-72
2021/08/16 04:59:21;;;;;;;16.00;11.95;;;18.40;98.00;;;;;;5035761;28;20331;-72
2021/08/16 05:01:49;;;;;;;17.02;11.40;;;18.40;98.00;;;;;;5035882;28;20034;-72
2021/08/16 05:04:14;;;;;;;17.25;11.35;;;18.50;98.00;;;;;;5036534;28;20319;-72
2021/08/16 05:06:42;;;;;;;16.90;11.43;;;18.50;98.00;;;;;;5036193;28;20025;-72
2021/08/16 05:09:09;;;;;;;19.50;12.05;;;18.50;98.00;;;;;;5036279;28;20288;-72
2021/08/16 05:11:35;;;;;;;19.05;12.68;;;18.50;98.00;;;;;;5034970;28;20044;-72
2021/08/16 05:14:01;;;;;;;19.25;10.98;;;18.60;98.00;;;;;;5036172;28;20037;-72
2021/08/16 05:16:27;;;;;;;19.13;11.25;;;18.60;98.00;;;;;;5035868;28;20025;-73
2021/08/16 05:18:54;;;;;;;23.65;12.27;;;18.60;98.00;;;;;;5036416;28;20040;-72
2021/08/16 05:21:21;;;;;;;19.65;12.02;;;18.60;98.00;;;;;;5034781;28;20434;-72
2021/08/16 05:23:47;;;;;;;20.35;11.18;;;18.60;98.00;;;;;;5034584;28;20054;-72
2021/08/16 05:26:13;;;;;;;21.98;11.95;;;18.60;98.00;;;;;;5035373;28;20018;-72
2021/08/16 05:28:39;;;;;;;19.20;11.88;;;18.60;98.00;;;;;;5034231;28;20108;-72
2021/08/16 05:31:07;;;;;;;21.23;12.07;;;18.60;98.00;;;;;;5019992;28;20030;-72
2021/08/16 05:33:33;;;;;;;17.33;11.45;;;18.60;98.00;;;;;;5019098;28;20034;-72
2021/08/16 05:35:59;;;;;;;21.10;11.70;;;18.60;98.00;;;;;;5036094;28;20022;-72
2021/08/16 05:38:24;;;;;;;30.52;13.10;;;18.60;98.00;;;;;;5036253;28;20053;-71
2021/08/16 05:40:53;;;;;;;15.48;11.82;;;18.60;98.00;;;;;;5045078;28;20029;-71
2021/08/16 05:43:18;;;;;;;19.65;12.40;;;18.50;98.00;;;;;;5054843;28;20028;-71
2021/08/16 05:45:44;;;;;;;22.23;13.10;;;18.50;98.00;;;;;;5054232;28;20100;-72
2021/08/16 05:48:10;;;;;;;18.80;12.40;;;18.50;98.00;;;;;;5053856;28;20025;-72
2021/08/16 05:50:36;;;;;;;18.48;12.63;;;18.40;98.00;;;;;;5041457;28;20033;-72
2021/08/16 05:53:02;;;;;;;18.65;12.65;;;18.40;98.00;;;;;;5034734;28;20021;-72
2021/08/16 05:55:27;;;;;;;18.80;12.75;;;18.30;98.00;;;;;;5035681;28;20030;-72
2021/08/16 05:57:53;;;;;;;20.58;13.63;;;18.30;98.00;;;;;;5028943;28;20072;-72
2021/08/16 06:00:19;;;;;;;22.50;13.52;;;18.30;98.00;;;;;;5035843;28;20100;-72
2021/08/16 06:02:45;;;;;;;17.98;12.48;;;18.20;97.70;;;;;;5035911;28;20029;-72
2021/08/16 06:05:11;;;;;;;18.80;12.02;;;18.20;98.00;;;;;;5034941;28;20029;-72
2021/08/16 06:07:37;;;;;;;17.92;11.88;;;18.10;98.00;;;;;;5054272;28;20421;-72
2021/08/16 06:10:04;;;;;;;20.25;12.02;;;18.00;98.00;;;;;;5055457;28;20029;-72
2021/08/16 06:12:30;;;;;;;18.90;10.95;;;18.00;98.00;;;;;;5038646;28;20117;-72
2021/08/16 06:14:56;;;;;;;17.13;9.88;;;17.90;98.00;;;;;;5035896;28;20041;-72
2021/08/16 06:17:21;;;;;;;17.63;10.13;;;17.90;98.00;;;;;;5035504;28;20355;-72
2021/08/16 06:19:47;;;;;;;13.45;9.45;;;17.90;98.00;;;;;;5035861;28;20318;-72
2021/08/16 06:22:12;;;;;;;17.17;9.85;;;18.00;98.00;;;;;;5034882;28;20521;-72
2021/08/16 06:24:38;;;;;;;17.20;9.95;;;18.00;98.00;;;;;;5035499;28;20049;-72
2021/08/16 06:27:04;;;;;;;19.15;10.25;;;18.00;98.00;;;;;;5034164;28;20018;-72
2021/08/16 06:29:30;;;;;;;20.40;10.02;;;17.90;98.00;;;;;;5035074;28;20579;-72
2021/08/16 06:31:55;;;;;;;18.10;10.45;;;17.90;98.00;;;;;;5035717;28;20033;-72
2021/08/16 06:34:22;;;;;;;15.98;10.68;;;17.90;98.00;;;;;;5035341;28;20033;-72
2021/08/16 06:36:55;;;;;;;16.55;9.82;;;18.00;98.00;;;;;;5035552;28;20029;-72
2021/08/16 06:39:23;;;;;;;17.75;10.10;;;18.00;98.00;;;;;;5035346;28;20029;-72
2021/08/16 06:41:54;;;;;;;18.23;10.57;;;18.00;98.00;;;;;;5036721;28;20051;-72
2021/08/16 06:44:23;;;;;;;14.85;8.90;;;18.10;98.00;;;;;;5035910;28;20022;-72
2021/08/16 06:46:49;;;;;;;16.45;9.18;;;18.30;98.00;;;;;;5038812;28;20373;-72
2021/08/16 06:49:15;;;;;;;14.75;7.72;;;18.60;98.00;;;;;;5038888;28;20024;-72
2021/08/16 06:51:41;;;;;;;15.95;8.90;;;18.90;98.00;;;;;;5038852;28;20430;-72
2021/08/16 06:54:07;;;;;;;13.30;7.80;;;19.10;98.00;;;;;;5035192;28;20068;-72
2021/08/16 06:56:33;;;;;;;17.45;8.48;;;19.20;98.00;;;;;;5033680;28;20450;-71
2021/08/16 06:58:59;;;;;;;15.57;7.70;;;19.50;98.00;;;;;;5035083;28;20100;-72
2021/08/16 07:01:26;;;;;;;13.00;7.57;;;19.80;98.00;;;;;;5035777;28;20104;-72
2021/08/16 07:03:57;;;;;;;23.33;8.18;;;20.10;97.90;;;;;;5034704;28;20017;-72
2021/08/16 07:06:23;;;;;;;13.50;7.93;;;20.10;97.40;;;;;;5036613;28;20108;-72
2021/08/16 07:08:50;;;;;;;14.98;7.28;;;20.00;97.50;;;;;;5035153;28;20026;-72
2021/08/16 07:11:16;;;;;;;20.90;8.10;;;19.80;98.00;;;;;;5036704;28;20048;-72
2021/08/16 07:13:42;;;;;;;15.75;8.40;;;19.60;98.00;;;;;;5036647;28;20445;-72
2021/08/16 07:16:08;;;;;;;17.30;8.32;;;19.40;98.00;;;;;;5036174;28;20029;-72
2021/08/16 07:18:34;;;;;;;14.07;8.23;;;19.20;98.00;;;;;;5034624;28;20025;-71
2021/08/16 07:21:04;;;;;;;11.65;7.43;;;19.20;98.00;;;;;;5036802;28;20021;-72
2021/08/16 07:23:31;;;;;;;11.43;7.50;;;19.10;98.00;;;;;;5035955;28;20037;-72
2021/08/16 07:25:59;;;;;;;16.38;7.82;;;19.10;98.00;;;;;;5038251;28;20045;-72
2021/08/16 07:28:29;;;;;;;14.38;8.77;;;19.00;98.00;;;;;;5033368;28;20021;-72
2021/08/16 07:30:58;;;;;;;13.57;8.80;;;19.00;98.00;;;;;;5034957;28;20021;-72
2021/08/16 07:33:24;;;;;;;16.23;8.93;;;18.80;98.00;;;;;;5037081;28;20022;-72
2021/08/16 07:35:50;;;;;;;15.48;8.40;;;18.70;98.00;;;;;;5035601;28;20389;-72
2021/08/16 07:38:17;;;;;;;12.80;8.15;;;18.60;98.00;;;;;;5035574;28;20097;-72
2021/08/16 07:40:43;;;;;;;12.88;7.63;;;18.60;98.00;;;;;;5033488;28;20057;-71
2021/08/16 07:43:08;;;;;;;12.68;8.05;;;18.70;98.00;;;;;;5046849;28;20057;-72
2021/08/16 07:45:35;;;;;;;15.50;7.43;;;18.80;98.00;;;;;;5033680;28;20026;-72
2021/08/16 07:48:01;;;;;;;15.23;7.13;;;19.10;98.00;;;;;;5034506;28;20026;-72
2021/08/16 07:50:26;;;;;;;13.82;6.85;;;19.40;98.00;;;;;;5033289;28;20032;-72
2021/08/16 07:52:54;;;;;;;13.00;7.18;;;19.60;97.50;;;;;;5033226;28;20030;-72
2021/08/16 07:55:19;;;;;;;11.85;6.88;;;19.70;97.40;;;;;;5034381;28;20025;-72
2021/08/16 07:57:48;;;;;;;11.82;6.57;;;19.60;97.40;;;;;;5030901;28;20037;-72
2021/08/16 08:00:14;;;;;;;11.73;5.00;;;19.90;96.60;;;;;;5032900;28;20048;-72
2021/08/16 08:02:50;;;;;;;10.75;5.22;;;21.20;92.30;;;;;;5033501;28;20025;-72
2021/08/16 08:05:21;;;;;;;13.65;5.07;;;22.10;89.50;;;;;;5033327;28;20022;-72
2021/08/16 08:07:48;;;;;;;7.72;4.50;;;22.60;86.10;;;;;;5033066;28;20624;-72
2021/08/16 08:10:15;;;;;;;11.50;4.95;;;22.80;85.10;;;;;;5034124;28;20021;-72
2021/08/16 08:12:43;;;;;;;9.18;4.97;;;22.70;86.20;;;;;;5032988;28;20048;-72
2021/08/16 08:15:09;;;;;;;8.40;4.38;;;21.90;88.00;;;;;;5033897;28;20029;-72
2021/08/16 08:17:35;;;;;;;14.00;5.38;;;21.40;88.80;;;;;;5033531;28;20060;-71
2021/08/16 08:20:04;;;;;;;10.50;5.00;;;20.50;90.60;;;;;;5033478;28;20410;-71
2021/08/16 08:22:30;;;;;;;11.98;5.05;;;20.00;93.40;;;;;;5033364;28;20041;-72
2021/08/16 08:24:55;;;;;;;10.48;4.80;;;19.80;93.50;;;;;;5033166;28;20033;-72
2021/08/16 08:27:21;;;;;;;10.73;4.25;;;20.00;93.80;;;;;;5031507;28;20018;-71
2021/08/16 08:29:48;;;;;;;10.25;4.30;;;20.60;91.60;;;;;;5033613;28;20055;-71
2021/08/16 08:32:15;;;;;;;13.70;4.88;;;21.60;87.60;;;;;;5033465;28;20025;-71
2021/08/16 08:34:41;;;;;;;10.18;4.32;;;22.40;86.20;;;;;;5033511;28;20061;-71
2021/08/16 08:37:11;;;;;;;13.55;4.07;;;23.00;84.30;;;;;;5032370;28;20319;-71
2021/08/16 08:39:37;;;;;;;8.00;4.07;;;23.20;83.20;;;;;;5033394;28;20025;-71
2021/08/16 08:42:04;;;;;;;8.40;3.80;;;23.20;82.70;;;;;;5031611;28;20024;-72
2021/08/16 08:44:34;;;;;;;11.27;4.30;;;22.70;83.50;;;;;;5032168;28;20053;-72
2021/08/16 08:47:00;;;;;;;8.05;4.35;;;21.90;85.40;;;;;;5045669;28;20044;-72
2021/08/16 08:49:26;;;;;;;14.35;4.20;;;21.40;86.80;;;;;;5033047;28;20018;-72
2021/08/16 08:51:51;;;;;;;18.30;4.82;;;21.50;86.50;;;;;;5031996;28;20037;-72
2021/08/16 08:54:20;;;;;;;6.68;3.53;;;21.40;86.50;;;;;;5032042;28;20041;-72
2021/08/16 08:56:47;;;;;;;7.97;3.88;;;21.20;86.00;;;;;;5030334;28;20029;-72
2021/08/16 08:59:13;;;;;;;8.40;3.88;;;20.80;87.80;;;;;;5031356;28;20359;-72
2021/08/16 09:01:58;;;;;;;8.00;4.28;;;20.70;87.60;;;;;;5032823;28;20034;-72
2021/08/16 09:04:28;;;;;;;10.02;3.80;;;21.20;87.70;;;;;;5030410;28;20018;-72
2021/08/16 09:06:54;;;;;;;10.80;3.72;;;21.90;84.10;;;;;;5033088;28;20021;-72
2021/08/16 09:09:20;;;;;;;7.32;3.92;;;22.30;84.20;;;;;;5031982;28;20036;-72
2021/08/16 09:11:50;;;;;;;6.88;3.65;;;22.30;83.10;;;;;;5030463;28;20146;-72
2021/08/16 09:14:17;;;;;;;6.30;3.60;;;22.30;84.60;;;;;;5032760;28;20018;-72
2021/08/16 09:16:45;;;;;;;7.82;3.72;;;22.20;84.00;;;;;;5034172;28;20030;-72
2021/08/16 09:19:20;;;;;;;7.55;3.95;;;21.70;84.60;;;;;;5031880;28;20032;-72
2021/08/16 09:21:54;;;;;;;9.30;3.90;;;21.20;85.10;;;;;;5045073;28;20025;-72
2021/08/16 09:24:27;;;;;;;;;;;20.90;85.60;;;;;;5031893;28;20093;-72
2021/08/16 09:27:00;;;;;;;7.95;3.90;;;20.80;86.40;;;;;;5030700;28;19909;-72
2021/08/16 09:29:26;;;;;;;7.70;3.92;;;20.50;86.90;;;;;;5029917;28;20033;-72
2021/08/16 09:31:53;;;;;;;10.80;4.28;;;20.90;87.50;;;;;;5032681;28;20322;-72
2021/08/16 09:34:37;;;;;;;7.10;3.83;;;20.90;86.10;;;;;;5032075;28;20029;-72
2021/08/16 09:37:15;;;;;;;9.80;4.38;;;20.70;87.20;;;;;;5032570;28;20021;-72
2021/08/16 09:39:43;;;;;;;8.93;4.32;;;20.60;88.70;;;;;;5033771;28;20040;-72
2021/08/16 09:42:09;;;;;;;7.78;3.92;;;21.10;88.20;;;;;;5034408;28;20036;-72
2021/08/16 09:44:48;;;;;;;9.55;4.03;;;21.10;87.90;;;;;;5033751;28;20029;-72
2021/08/16 09:47:14;;;;;;;8.93;4.25;;;20.90;87.60;;;;;;5035326;28;20025;-72
2021/08/16 09:49:40;;;;;;;8.48;4.00;;;20.50;88.90;;;;;;5034575;28;20090;-72
2021/08/16 09:52:11;;;;;;;8.40;4.38;;;20.40;89.30;;;;;;5033731;28;20026;-72
2021/08/16 09:54:38;;;;;;;7.72;3.85;;;20.70;89.40;;;;;;5034292;28;20111;-72
2021/08/16 09:57:06;;;;;;;13.25;4.20;;;20.80;89.30;;;;;;5034896;28;20159;-72
2021/08/16 09:59:33;;;;;;;11.10;3.58;;;20.50;89.20;;;;;;5035202;28;20041;-72
2021/08/16 10:02:00;;;;;;;8.57;3.80;;;20.20;89.70;;;;;;5034449;28;20160;-71
2021/08/16 10:04:27;;;;;;;7.43;3.67;;;20.20;88.70;;;;;;5034680;28;20084;-72
2021/08/16 10:06:56;;;;;;;9.77;3.88;;;20.00;88.60;;;;;;5035879;28;20437;-72
2021/08/16 10:09:24;;;;;;;14.82;4.53;;;19.90;88.60;;;;;;5035174;28;20414;-72
2021/08/16 10:11:54;;;;;;;8.02;3.95;;;20.00;87.90;;;;;;5032940;28;20037;-71
2021/08/16 10:14:24;;;;;;;10.18;4.57;;;19.90;87.40;;;;;;5035011;28;20056;-72
2021/08/16 10:16:53;;;;;;;9.18;3.85;;;19.80;87.00;;;;;;5038516;28;20072;-72
2021/08/16 10:19:23;;;;;;;12.10;4.70;;;19.70;88.00;;;;;;5038102;28;20025;-72
2021/08/16 10:21:57;;;;;;;12.43;4.15;;;19.70;89.00;;;;;;5039093;28;20034;-72
2021/08/16 10:24:25;;;;;;;9.02;3.72;;;19.80;89.20;;;;;;5038015;28;20091;-71
2021/08/16 10:27:03;;;;;;;8.57;3.85;;;19.60;88.90;;;;;;5038238;28;20091;-71
2021/08/16 10:29:30;;;;;;;8.43;3.83;;;19.20;89.50;;;;;;5038246;28;20033;-71
2021/08/16 10:31:59;;;;;;;10.07;3.42;;;18.90;91.10;;;;;;5037967;28;20124;-72
2021/08/16 10:34:35;;;;;;;7.68;3.85;;;18.90;91.10;;;;;;5038075;28;20057;-72
2021/08/16 10:37:11;;;;;;;10.30;3.92;;;18.90;91.70;;;;;;5039631;28;20108;-71
2021/08/16 10:39:43;;;;;;;7.75;3.92;;;18.90;91.70;;;;;;5035390;28;20030;-72
2021/08/16 10:42:13;;;;;;;7.78;3.40;;;18.90;91.70;;;;;;5036699;28;20128;-71
2021/08/16 10:44:40;;;;;;;7.32;3.25;;;19.00;91.70;;;;;;5028991;28;20032;-71
2021/08/16 10:47:06;;;;;;;6.70;3.20;;;19.20;90.60;;;;;;5039316;28;20364;-72
2021/08/16 10:49:36;;;;;;;6.32;2.80;;;19.40;90.30;;;;;;5037967;28;20026;-72
2021/08/16 10:52:03;;;;;;;8.85;3.67;;;19.70;89.30;;;;;;5037151;28;20025;-72
2021/08/16 10:54:31;;;;;;;8.43;3.28;;;19.90;88.80;;;;;;5037337;28;20410;-72
2021/08/16 10:56:58;;;;;;;6.32;2.80;;;19.90;89.30;;;;;;5036424;28;20036;-72
2021/08/16 10:59:25;;;;;;;5.88;2.50;;;20.20;89.00;;;;;;5037707;28;20037;-72
2021/08/16 11:01:52;;;;;;;5.75;2.63;;;20.50;87.20;;;;;;5038097;28;20036;-72
2021/08/16 11:04:34;;;;;;;6.75;2.40;;;20.90;87.40;;;;;;5036627;28;20032;-72
2021/08/16 11:07:11;;;;;;;5.65;2.60;;;21.10;85.20;;;;;;5037473;28;20418;-71
2021/08/16 11:09:39;;;;;;;6.60;3.05;;;20.90;85.30;;;;;;5037882;28;20056;-72
2021/08/16 11:12:10;;;;;;;7.10;2.97;;;20.20;87.20;;;;;;5017977;28;20120;-72
2021/08/16 11:14:39;;;;;;;6.85;2.70;;;19.90;89.00;;;;;;5037142;28;20062;-71
2021/08/16 11:17:06;;;;;;;6.68;2.90;;;19.80;88.90;;;;;;5037509;28;20491;-71
2021/08/16 11:19:59;;;;;;;6.15;2.70;;;19.70;89.50;;;;;;5038116;28;20036;-72
2021/08/16 11:22:25;;;;;;;6.45;3.00;;;20.40;88.40;;;;;;5017706;28;20112;-72
2021/08/16 11:24:51;;;;;;;6.40;2.70;;;22.00;84.00;;;;;;5023943;28;20026;-72
2021/08/16 11:27:20;;;;;;;7.45;3.20;;;22.60;81.60;;;;;;5037200;28;20368;-72
2021/08/16 11:30:01;;;;;;;6.38;2.50;;;22.90;82.00;;;;;;5037754;28;20113;-72
2021/08/16 11:32:29;;;;;;;4.80;2.53;;;23.10;80.20;;;;;;5038415;28;20325;-72
2021/08/16 11:34:56;;;;;;;7.05;3.20;;;22.50;81.70;;;;;;5036491;28;20038;-72
2021/08/16 11:37:24;;;;;;;7.20;2.95;;;21.70;83.90;;;;;;5038434;28;20033;-72
2021/08/16 11:39:57;;;;;;;7.68;3.38;;;21.20;85.70;;;;;;5035097;28;20033;-72
2021/08/16 11:42:24;;;;;;;6.45;2.95;;;21.10;86.60;;;;;;5036543;28;20022;-72
2021/08/16 11:45:08;;;;;;;10.50;3.70;;;20.70;87.30;;;;;;5036979;28;20090;-72
2021/08/16 11:47:50;;;;;;;8.43;3.40;;;20.20;88.40;;;;;;5037366;28;20641;-72
2021/08/16 11:50:19;;;;;;;11.15;3.50;;;20.20;87.80;;;;;;5037499;28;20075;-71
2021/08/16 11:52:45;;;;;;;8.77;3.38;;;20.30;88.80;;;;;;5036178;28;20025;-72
2021/08/16 11:55:12;;;;;;;6.95;3.40;;;20.30;88.90;;;;;;5037233;28;20065;-72
2021/08/16 11:57:39;;;;;;;6.13;3.05;;;21.10;86.20;;;;;;5030491;28;20033;-72
2021/08/16 12:00:07;;;;;;;8.23;3.20;;;22.20;83.00;;;;;;5035683;28;20017;-72
2021/08/16 12:02:39;;;;;;;8.00;3.55;;;22.20;81.30;;;;;;5036674;28;20026;-72
2021/08/16 12:05:06;;;;;;;10.30;3.92;;;22.00;82.90;;;;;;5034991;28;20047;-72
2021/08/16 12:07:32;;;;;;;8.35;3.15;;;22.10;82.00;;;;;;5037778;28;20017;-72
2021/08/16 12:09:58;;;;;;;8.90;3.60;;;21.70;81.90;;;;;;5036944;28;20025;-72
2021/08/16 12:12:27;;;;;;;7.30;3.45;;;21.40;83.60;;;;;;5035499;28;20042;-72
2021/08/16 12:15:01;;;;;;;6.35;3.28;;;21.50;83.70;;;;;;5037224;28;20296;-72
2021/08/16 12:17:27;;;;;;;7.55;3.63;;;22.00;82.20;;;;;;5036944;28;20025;-72
2021/08/16 12:20:06;;;;;;;7.90;3.88;;;21.90;82.10;;;;;;5037410;28;20040;-72
2021/08/16 12:22:33;;;;;;;7.47;3.00;;;22.20;81.40;;;;;;5036776;28;20156;-72
2021/08/16 12:25:07;;;;;;;9.45;3.78;;;22.20;80.80;;;;;;5036518;28;20032;-72
2021/08/16 12:27:34;;;;;;;7.75;4.22;;;22.10;81.20;;;;;;5035891;28;20021;-71
2021/08/16 12:30:00;;;;;;;7.03;3.13;;;21.70;81.50;;;;;;5037373;28;20022;-72
2021/08/16 12:32:28;;;;;;;10.43;4.15;;;21.10;82.00;;;;;;5036990;28;20029;-72
2021/08/16 12:34:54;;;;;;;7.65;3.50;;;20.80;83.70;;;;;;5037214;28;20103;-71
2021/08/16 12:37:21;;;;;;;8.88;3.50;;;20.70;84.70;;;;;;5037001;28;20026;-72